createdAt,value
2019-05-23T00:01:11.388Z,13.40
2019-05-23T00:04:09.993Z,20.50
2019-05-23T00:07:00.653Z,13.93
2019-05-23T00:09:50.424Z,15.83
2019-05-23T00:12:42.052Z,14.87
2019-05-23T00:15:25.739Z,13.40
2019-05-23T00:17:57.266Z,12.97
2019-05-23T00:20:29.626Z,16.47
2019-05-23T00:23:01.505Z,16.43
2019-05-23T00:25:33.318Z,17.83
2019-05-23T00:28:06.043Z,19.97
2019-05-23T00:30:57.314Z,17.40
2019-05-23T00:33:31.012Z,15.07
2019-05-23T00:36:02.207Z,20.50
2019-05-23T00:38:35.080Z,15.37
2019-05-23T00:41:07.214Z,14.90
2019-05-23T00:43:37.874Z,20.27
2019-05-23T00:46:09.850Z,17.77
2019-05-23T00:48:42.762Z,20.90
2019-05-23T00:51:15.876Z,17.10
2019-05-23T00:53:46.688Z,16.23
2019-05-23T00:56:18.671Z,22.97
2019-05-23T00:58:50.382Z,17.43
2019-05-23T01:01:22.671Z,20.13
2019-05-23T01:03:54.798Z,18.43
2019-05-23T01:06:28.186Z,16.07
2019-05-23T01:08:59.975Z,15.40
2019-05-23T01:11:30.776Z,14.80
2019-05-23T01:14:01.637Z,15.47
2019-05-23T01:16:33.965Z,18.43
2019-05-23T01:19:05.217Z,15.67
2019-05-23T01:21:43.941Z,18.77
2019-05-23T01:24:29.541Z,18.03
2019-05-23T01:27:00.116Z,17.83
2019-05-23T01:29:37.787Z,18.17
2019-05-23T01:32:13.615Z,18.60
2019-05-23T01:34:44.826Z,17.30
2019-05-23T01:37:15.930Z,18.50
2019-05-23T01:39:46.747Z,14.70
2019-05-23T01:42:17.612Z,17.10
2019-05-23T01:44:50.292Z,18.40
2019-05-23T01:47:21.605Z,16.77
2019-05-23T01:49:53.221Z,17.93
2019-05-23T01:52:23.801Z,19.73
2019-05-23T01:54:54.909Z,16.07
2019-05-23T01:57:26.518Z,16.30
2019-05-23T02:00:08.930Z,16.63
2019-05-23T02:02:30.922Z,12.67
2019-05-23T02:05:02.806Z,16.97
2019-05-23T02:07:35.035Z,16.13
2019-05-23T02:10:06.491Z,21.80
2019-05-23T02:12:40.354Z,13.87
2019-05-23T02:15:12.020Z,17.17
2019-05-23T02:17:44.088Z,15.80
2019-05-23T02:20:16.759Z,15.93
2019-05-23T02:22:48.518Z,16.40
2019-05-23T02:25:21.537Z,15.87
2019-05-23T02:27:53.555Z,20.10
2019-05-23T02:30:35.823Z,15.80
2019-05-23T02:32:58.943Z,18.97
2019-05-23T02:35:29.860Z,21.13
2019-05-23T02:38:31.567Z,16.43
2019-05-23T02:41:24.130Z,23.10
2019-05-23T02:44:00.118Z,23.97
2019-05-23T02:46:37.242Z,21.83
2019-05-23T02:49:11.492Z,19.63
2019-05-23T02:51:43.698Z,22.60
2019-05-23T02:54:16.201Z,19.40
2019-05-23T02:56:47.937Z,22.03
2019-05-23T02:59:43.328Z,22.33
2019-05-23T03:02:57.920Z,20.13
2019-05-23T03:05:29.018Z,23.40
2019-05-23T03:08:09.834Z,26.43
2019-05-23T03:11:00.917Z,25.30
2019-05-23T03:13:34.433Z,31.67
2019-05-23T03:16:06.135Z,23.20
2019-05-23T03:18:42.854Z,23.13
2019-05-23T03:21:15.782Z,24.40
2019-05-23T03:23:49.469Z,17.87
2019-05-23T03:26:54.643Z,18.60
2019-05-23T03:29:25.203Z,18.47
2019-05-23T03:32:18.618Z,18.40
2019-05-23T03:34:53.271Z,19.03
2019-05-23T03:37:24.328Z,21.37
2019-05-23T03:39:55.291Z,25.20
2019-05-23T03:42:27.550Z,22.93
2019-05-23T03:44:58.091Z,30.60
2019-05-23T03:47:31.206Z,31.43
2019-05-23T03:50:02.881Z,58.87
2019-05-23T03:52:33.452Z,46.73
2019-05-23T03:55:06.851Z,27.63
2019-05-23T03:57:39.392Z,30.93
2019-05-23T04:00:13.997Z,25.57
2019-05-23T04:02:48.672Z,25.20
2019-05-23T04:05:20.162Z,24.33
2019-05-23T04:07:52.599Z,30.27
2019-05-23T04:10:23.854Z,25.83
2019-05-23T04:12:55.345Z,21.77
2019-05-23T04:15:29.799Z,13.87
2019-05-23T04:18:02.842Z,22.20
2019-05-23T04:20:36.817Z,22.83
2019-05-23T04:23:11.447Z,20.63
2019-05-23T04:25:49.207Z,24.43
2019-05-23T04:28:21.725Z,27.97
2019-05-23T04:30:56.995Z,32.80
2019-05-23T04:33:27.694Z,27.37
2019-05-23T04:36:00.301Z,19.53
2019-05-23T04:38:36.204Z,20.27
2019-05-23T04:41:05.235Z,20.33
2019-05-23T04:43:35.806Z,25.60
2019-05-23T04:46:07.392Z,27.00
2019-05-23T04:48:38.524Z,23.10
2019-05-23T04:51:09.285Z,24.13
2019-05-23T04:53:43.747Z,26.10
2019-05-23T04:56:14.767Z,20.77
2019-05-23T04:58:45.410Z,16.73
2019-05-23T05:01:17.055Z,26.33
2019-05-23T05:03:49.040Z,16.37
2019-05-23T05:06:20.582Z,16.07
2019-05-23T05:08:54.490Z,22.63
2019-05-23T05:11:30.238Z,29.63
2019-05-23T05:13:58.734Z,28.17
2019-05-23T05:16:29.476Z,21.40
2019-05-23T05:18:59.956Z,19.60
2019-05-23T05:21:30.421Z,21.80
2019-05-23T05:24:00.986Z,43.90
2019-05-23T05:26:31.717Z,29.93
2019-05-23T05:29:02.658Z,28.67
2019-05-23T05:31:33.168Z,32.80
2019-05-23T05:34:04.043Z,42.97
2019-05-23T05:36:34.965Z,47.50
2019-05-23T05:39:07.695Z,43.73
2019-05-23T05:41:38.732Z,71.70
2019-05-23T05:44:11.822Z,61.63
2019-05-23T05:46:42.943Z,47.27
2019-05-23T05:49:14.284Z,33.87
2019-05-23T05:51:45.227Z,37.77
2019-05-23T05:54:16.348Z,34.60
2019-05-23T05:56:46.863Z,47.23
2019-05-23T05:59:17.518Z,46.20
2019-05-23T06:01:48.499Z,23.47
2019-05-23T06:04:19.403Z,30.00
2019-05-23T06:07:08.220Z,46.03
2019-05-23T06:09:39.109Z,33.47
2019-05-23T06:12:10.472Z,48.87
2019-05-23T06:14:41.155Z,57.67
2019-05-23T06:17:16.014Z,59.03
2019-05-23T06:19:46.704Z,61.40
2019-05-23T06:22:20.755Z,40.70
2019-05-23T06:24:54.222Z,39.90
2019-05-23T06:27:23.733Z,38.57
2019-05-23T06:29:55.602Z,51.33
2019-05-23T06:32:27.728Z,58.50
2019-05-23T06:34:58.453Z,34.40
2019-05-23T06:37:34.045Z,38.73
2019-05-23T06:40:02.353Z,17.03
2019-05-23T06:42:33.145Z,19.80
2019-05-23T06:45:05.101Z,29.80
2019-05-23T06:47:35.837Z,34.70
2019-05-23T06:50:10.421Z,40.37
2019-05-23T06:52:40.991Z,31.80
2019-05-23T06:55:11.843Z,30.97
2019-05-23T06:57:42.475Z,29.93
2019-05-23T07:00:16.821Z,36.13
2019-05-23T07:02:47.949Z,22.97
2019-05-23T07:05:21.877Z,20.07
2019-05-23T07:07:52.403Z,16.70
2019-05-23T07:10:24.622Z,20.60
2019-05-23T07:12:55.133Z,21.20
2019-05-23T07:15:26.997Z,22.03
2019-05-23T07:17:59.746Z,18.67
2019-05-23T07:20:30.531Z,14.43
2019-05-23T07:23:01.498Z,12.70
2019-05-23T07:25:32.092Z,21.67
2019-05-23T07:28:02.739Z,25.17
2019-05-23T07:30:33.353Z,19.20
2019-05-23T07:33:04.479Z,25.67
2019-05-23T07:35:35.103Z,15.80
2019-05-23T07:38:05.666Z,15.67
2019-05-23T07:40:36.448Z,17.73
2019-05-23T07:43:07.566Z,12.43
2019-05-23T07:45:43.978Z,14.70
2019-05-23T07:48:15.471Z,18.77
2019-05-23T07:50:46.146Z,14.90
2019-05-23T07:53:23.325Z,15.03
2019-05-23T07:55:54.225Z,18.50
2019-05-23T07:58:24.837Z,15.23
2019-05-23T08:00:59.174Z,17.93
2019-05-23T08:03:32.240Z,19.43
2019-05-23T08:06:03.072Z,17.70
2019-05-23T08:08:34.087Z,14.83
2019-05-23T08:11:04.703Z,16.03
2019-05-23T08:13:35.497Z,13.90
2019-05-23T08:16:06.429Z,15.53
2019-05-23T08:18:37.013Z,16.80
2019-05-23T08:21:07.725Z,19.30
2019-05-23T08:23:38.304Z,19.00
2019-05-23T08:26:09.480Z,17.03
2019-05-23T08:28:56.655Z,21.00
2019-05-23T08:31:12.551Z,13.43
2019-05-23T08:33:43.164Z,16.93
2019-05-23T08:36:14.480Z,14.43
2019-05-23T08:38:45.176Z,14.87
2019-05-23T08:41:16.460Z,15.87
2019-05-23T08:43:47.172Z,11.97
2019-05-23T08:46:19.211Z,23.67
2019-05-23T08:48:49.865Z,17.37
2019-05-23T08:51:20.512Z,14.17
2019-05-23T08:53:52.286Z,15.03
2019-05-23T08:56:22.990Z,17.20
2019-05-23T08:58:53.480Z,18.20
2019-05-23T09:01:24.286Z,17.03
2019-05-23T09:03:54.856Z,18.93
2019-05-23T09:06:25.590Z,16.70
2019-05-23T09:08:56.655Z,19.87
2019-05-23T09:11:27.437Z,21.67
2019-05-23T09:13:58.231Z,17.53
2019-05-23T09:16:29.015Z,19.70
2019-05-23T09:18:59.787Z,18.77
2019-05-23T09:21:30.268Z,15.90
2019-05-23T09:24:00.797Z,16.00
2019-05-23T09:26:31.447Z,17.67
2019-05-23T09:29:03.046Z,20.13
2019-05-23T09:31:33.860Z,18.10
2019-05-23T09:34:04.708Z,19.40
2019-05-23T09:36:35.755Z,19.53
2019-05-23T09:39:09.059Z,23.73
2019-05-23T09:41:41.101Z,19.77
2019-05-23T09:44:11.664Z,42.43
2019-05-23T09:46:43.208Z,26.90
2019-05-23T09:49:14.169Z,28.63
2019-05-23T09:51:45.442Z,26.17
2019-05-23T09:54:16.903Z,21.63
2019-05-23T09:56:47.498Z,29.90
2019-05-23T09:59:18.090Z,19.77
2019-05-23T10:01:48.864Z,15.50
2019-05-23T10:04:20.494Z,22.93
2019-05-23T10:06:50.975Z,24.33
2019-05-23T10:09:21.542Z,21.73
2019-05-23T10:11:52.949Z,23.00
2019-05-23T10:14:26.885Z,23.40
2019-05-23T10:16:57.541Z,25.50
2019-05-23T10:19:28.101Z,29.57
2019-05-23T10:21:59.696Z,28.70
2019-05-23T10:24:30.241Z,28.37
2019-05-23T10:27:00.844Z,26.53
2019-05-23T10:29:31.455Z,27.07
2019-05-23T10:32:02.154Z,23.10
2019-05-23T10:34:32.751Z,26.57
2019-05-23T10:37:03.865Z,26.17
2019-05-23T10:39:35.581Z,26.03
2019-05-23T10:42:06.469Z,29.03
2019-05-23T10:44:39.881Z,22.73
2019-05-23T10:47:10.504Z,24.33
2019-05-23T10:49:41.164Z,25.70
2019-05-23T10:52:11.831Z,20.97
2019-05-23T10:54:42.452Z,26.00
2019-05-23T10:57:13.185Z,22.67
2019-05-23T10:59:43.698Z,25.03
2019-05-23T11:02:16.437Z,29.27
2019-05-23T11:04:47.061Z,27.90
2019-05-23T11:07:17.977Z,24.17
2019-05-23T11:09:49.285Z,24.70
2019-05-23T11:12:19.778Z,28.97
2019-05-23T11:14:50.884Z,31.43
2019-05-23T11:17:22.257Z,36.30
2019-05-23T11:19:53.010Z,37.20
2019-05-23T11:22:24.594Z,41.37
2019-05-23T11:24:55.471Z,38.60
2019-05-23T11:27:26.776Z,41.43
2019-05-23T11:29:57.399Z,42.73
2019-05-23T11:32:30.658Z,39.37
2019-05-23T11:35:01.366Z,39.97
2019-05-23T11:37:32.053Z,36.87
2019-05-23T11:40:02.718Z,39.40
2019-05-23T11:42:33.276Z,32.97
2019-05-23T11:45:04.206Z,30.43
2019-05-23T11:47:34.944Z,37.57
2019-05-23T11:50:06.855Z,32.17
2019-05-23T11:52:37.694Z,29.30
2019-05-23T11:55:08.544Z,33.03
2019-05-23T11:57:39.551Z,27.30
2019-05-23T12:00:12.382Z,31.03
2019-05-23T12:02:44.960Z,38.37
2019-05-23T12:05:22.139Z,31.50
2019-05-23T12:07:52.814Z,44.60
2019-05-23T12:10:23.401Z,66.93
2019-05-23T12:12:53.890Z,56.10
2019-05-23T12:15:28.508Z,55.63
2019-05-23T12:17:59.543Z,51.30
2019-05-23T12:20:30.551Z,40.07
2019-05-23T12:23:01.206Z,40.20
2019-05-23T12:25:31.971Z,29.53
2019-05-23T12:28:02.997Z,35.87
2019-05-23T12:30:33.646Z,35.07
2019-05-23T12:33:04.491Z,29.97
2019-05-23T12:35:36.577Z,29.77
2019-05-23T12:38:07.453Z,29.70
2019-05-23T12:40:38.031Z,31.03
2019-05-23T12:43:08.616Z,30.50
2019-05-23T12:45:39.110Z,32.20
2019-05-23T12:48:16.527Z,34.60
2019-05-23T12:50:47.154Z,38.00
2019-05-23T12:53:17.799Z,42.50
2019-05-23T12:55:48.522Z,41.57
2019-05-23T12:58:20.069Z,39.90
2019-05-23T13:00:54.109Z,34.80
2019-05-23T13:03:24.972Z,35.93
2019-05-23T13:05:55.546Z,36.73
2019-05-23T13:08:26.241Z,33.37
2019-05-23T13:10:56.855Z,34.50
2019-05-23T13:13:27.986Z,38.23
2019-05-23T13:15:58.606Z,36.97
2019-05-23T13:18:29.268Z,37.07
2019-05-23T13:20:59.996Z,32.70
2019-05-23T13:23:31.114Z,31.83
2019-05-23T13:26:01.879Z,34.97
2019-05-23T13:28:32.586Z,37.50
2019-05-23T13:31:03.458Z,32.47
2019-05-23T13:33:34.029Z,32.50
2019-05-23T13:36:05.195Z,33.57
2019-05-23T13:38:36.174Z,30.00
2019-05-23T13:41:06.949Z,25.40
2019-05-23T13:43:38.090Z,26.40
2019-05-23T13:46:09.192Z,28.50
2019-05-23T13:48:39.883Z,21.87
2019-05-23T13:51:10.469Z,29.23
2019-05-23T13:53:41.521Z,32.23
2019-05-23T13:56:12.169Z,28.23
2019-05-23T13:58:42.909Z,28.00
2019-05-23T14:01:13.606Z,37.40
2019-05-23T14:03:44.475Z,32.67
2019-05-23T14:06:15.086Z,18.70
2019-05-23T14:08:45.586Z,24.10
2019-05-23T14:11:16.474Z,27.03
2019-05-23T14:13:47.813Z,23.33
2019-05-23T14:16:18.582Z,21.50
2019-05-23T14:18:49.471Z,17.73
2019-05-23T14:21:20.325Z,17.83
2019-05-23T14:23:50.883Z,13.63
2019-05-23T14:26:21.650Z,14.03
2019-05-23T14:28:52.237Z,17.93
2019-05-23T14:31:23.787Z,12.57
2019-05-23T14:34:12.237Z,18.23
2019-05-23T14:37:00.924Z,13.93
2019-05-23T14:39:44.181Z,14.50
2019-05-23T14:42:45.747Z,16.77
2019-05-23T14:45:36.039Z,16.40
2019-05-23T14:48:32.326Z,24.03
2019-05-23T14:51:28.607Z,19.07
2019-05-23T14:54:05.279Z,13.70
2019-05-23T14:56:36.993Z,21.90
2019-05-23T14:59:07.564Z,18.10
2019-05-23T15:01:38.740Z,14.27
2019-05-23T15:04:09.219Z,15.50
2019-05-23T15:06:39.779Z,22.07
2019-05-23T15:09:10.765Z,11.47
2019-05-23T15:11:41.390Z,17.47
2019-05-23T15:14:11.867Z,15.43
2019-05-23T15:16:43.846Z,13.40
2019-05-23T15:19:14.431Z,11.50
2019-05-23T15:21:45.006Z,11.87
2019-05-23T15:24:16.318Z,9.93
2019-05-23T15:26:49.146Z,9.50
2019-05-23T15:29:20.131Z,13.47
2019-05-23T15:32:01.781Z,11.27
2019-05-23T15:34:23.808Z,10.97
2019-05-23T15:36:55.478Z,13.87
2019-05-23T15:39:28.716Z,11.47
2019-05-23T15:41:59.279Z,14.57
2019-05-23T15:44:31.078Z,12.70
2019-05-23T15:47:03.200Z,10.80
2019-05-23T15:49:34.062Z,12.07
2019-05-23T15:52:15.012Z,11.13
2019-05-23T15:55:00.504Z,11.57
2019-05-23T15:57:50.059Z,11.30
2019-05-23T16:00:42.763Z,10.20
2019-05-23T16:03:38.006Z,11.27
2019-05-23T16:06:11.416Z,10.03
2019-05-23T16:08:42.734Z,6.87
2019-05-23T16:11:17.407Z,8.03
2019-05-23T16:13:46.553Z,10.47
2019-05-23T16:16:18.626Z,11.73
2019-05-23T16:18:49.921Z,11.43
2019-05-23T16:21:21.651Z,9.67
2019-05-23T16:23:54.545Z,11.30
2019-05-23T16:26:25.254Z,10.70
2019-05-23T16:28:55.962Z,15.47
2019-05-23T16:31:27.526Z,30.17
2019-05-23T16:33:59.524Z,33.43
2019-05-23T16:36:30.264Z,38.60
2019-05-23T16:39:00.788Z,41.17
2019-05-23T16:41:33.076Z,33.30
2019-05-23T16:44:03.887Z,40.10
2019-05-23T16:46:34.542Z,31.63
2019-05-23T16:49:05.480Z,29.33
2019-05-23T16:51:36.334Z,29.20
2019-05-23T16:54:07.044Z,30.47
2019-05-23T16:56:50.613Z,30.10
2019-05-23T16:59:34.192Z,33.93
2019-05-23T17:02:14.649Z,34.80
2019-05-23T17:05:08.493Z,34.77
2019-05-23T17:07:39.669Z,34.20
2019-05-23T17:10:24.546Z,40.17
2019-05-23T17:13:07.336Z,29.40
2019-05-23T17:15:56.629Z,20.83
2019-05-23T17:18:44.800Z,20.30
2019-05-23T17:21:34.670Z,17.80
2019-05-23T17:24:34.724Z,22.13
2019-05-23T17:27:10.973Z,21.13
2019-05-23T17:29:54.419Z,20.67
2019-05-23T17:32:28.892Z,26.40
2019-05-23T17:35:00.959Z,28.07
2019-05-23T17:37:33.142Z,32.23
2019-05-23T17:40:23.227Z,24.97
2019-05-23T17:42:39.671Z,25.60
2019-05-23T17:45:14.062Z,23.80
2019-05-23T17:47:43.230Z,23.33
2019-05-23T17:50:13.925Z,26.13
2019-05-23T17:52:44.509Z,29.70
2019-05-23T17:55:15.940Z,21.37
2019-05-23T17:57:46.593Z,23.03
2019-05-23T18:00:21.995Z,22.97
2019-05-23T18:02:54.456Z,22.73
2019-05-23T18:05:27.045Z,25.37
2019-05-23T18:07:57.734Z,18.30
2019-05-23T18:10:44.136Z,19.43
2019-05-23T18:13:02.069Z,22.60
2019-05-23T18:15:34.804Z,20.83
2019-05-23T18:18:06.700Z,19.57
2019-05-23T18:20:38.026Z,26.00
2019-05-23T18:23:09.186Z,20.03
2019-05-23T18:25:41.425Z,22.80
2019-05-23T18:28:13.932Z,16.47
2019-05-23T18:30:56.895Z,13.43
2019-05-23T18:33:28.753Z,15.30
2019-05-23T18:36:01.115Z,14.97
2019-05-23T18:38:31.990Z,11.93
2019-05-23T18:41:08.780Z,19.57
2019-05-23T18:43:55.141Z,24.93
2019-05-23T18:46:30.772Z,18.13
2019-05-23T18:49:01.944Z,15.93
2019-05-23T18:51:33.280Z,22.13
2019-05-23T18:54:04.135Z,21.57
2019-05-23T18:56:52.872Z,14.13
2019-05-23T18:59:23.494Z,17.00
2019-05-23T19:01:54.362Z,21.77
2019-05-23T19:04:42.962Z,17.50
2019-05-23T19:07:14.241Z,29.07
2019-05-23T19:10:02.431Z,25.93
2019-05-23T19:12:50.772Z,20.10
2019-05-23T19:15:22.822Z,20.73
2019-05-23T19:18:11.343Z,35.53
2019-05-23T19:20:42.101Z,53.53
2019-05-23T19:23:14.212Z,48.33
2019-05-23T19:26:07.132Z,57.90
2019-05-23T19:28:56.157Z,54.13
2019-05-23T19:31:45.701Z,50.20
2019-05-23T19:34:18.037Z,40.57
2019-05-23T19:36:49.486Z,32.77
2019-05-23T19:39:23.905Z,34.27
2019-05-23T19:41:56.537Z,36.07
2019-05-23T19:44:44.933Z,24.10
2019-05-23T19:47:16.003Z,22.70
2019-05-23T19:49:46.685Z,19.13
2019-05-23T19:52:52.665Z,33.50
2019-05-23T19:55:23.431Z,28.27
2019-05-23T19:58:12.538Z,25.37
2019-05-23T20:00:44.202Z,32.63
2019-05-23T20:03:15.786Z,32.57
2019-05-23T20:05:48.151Z,37.30
2019-05-23T20:08:19.140Z,44.20
2019-05-23T20:11:25.495Z,38.57
2019-05-23T20:13:56.390Z,33.47
2019-05-23T20:16:28.396Z,34.27
2019-05-23T20:18:59.098Z,27.73
2019-05-23T20:21:30.119Z,20.67
2019-05-23T20:24:00.701Z,24.13
2019-05-23T20:26:31.302Z,23.77
2019-05-23T20:29:05.177Z,22.80
2019-05-23T20:31:36.610Z,27.07
2019-05-23T20:34:25.281Z,32.13
2019-05-23T20:36:55.836Z,32.23
2019-05-23T20:39:26.564Z,30.50
2019-05-23T20:42:10.304Z,33.33
2019-05-23T20:44:29.748Z,25.00
2019-05-23T20:47:02.623Z,26.93
2019-05-23T20:49:33.222Z,22.30
2019-05-23T20:52:21.459Z,20.23
2019-05-23T20:54:52.097Z,18.80
2019-05-23T20:57:22.679Z,16.07
2019-05-23T20:59:53.186Z,15.97
2019-05-23T21:02:24.045Z,19.60
2019-05-23T21:04:54.745Z,14.90
2019-05-23T21:07:43.471Z,18.80
2019-05-23T21:10:48.460Z,22.80
2019-05-23T21:13:19.329Z,15.93
2019-05-23T21:16:08.059Z,17.97
2019-05-23T21:18:38.800Z,21.17
2019-05-23T21:21:27.239Z,19.23
2019-05-23T21:23:57.730Z,20.33
2019-05-23T21:26:28.285Z,23.87
2019-05-23T21:28:59.007Z,16.30
2019-05-23T21:31:32.148Z,20.20
2019-05-23T21:34:02.766Z,20.60
2019-05-23T21:36:51.307Z,17.70
2019-05-23T21:39:24.464Z,18.00
2019-05-23T21:41:56.065Z,22.10
2019-05-23T21:44:26.520Z,17.80
2019-05-23T21:46:57.155Z,25.63
2019-05-23T21:49:27.739Z,26.87
2019-05-23T21:51:58.505Z,22.47
2019-05-23T21:54:29.105Z,26.17
2019-05-23T21:57:00.034Z,23.87
2019-05-23T21:59:48.338Z,25.73
2019-05-23T22:02:31.292Z,28.53
2019-05-23T22:05:12.742Z,20.23
2019-05-23T22:07:43.860Z,21.63
2019-05-23T22:10:14.431Z,18.97
2019-05-23T22:12:45.273Z,20.07
2019-05-23T22:15:19.994Z,18.87
2019-05-23T22:17:51.073Z,20.43
2019-05-23T22:20:21.555Z,21.07
2019-05-23T22:22:52.190Z,22.53
2019-05-23T22:25:33.190Z,18.33
2019-05-23T22:28:03.777Z,19.10
2019-05-23T22:30:35.547Z,16.57
2019-05-23T22:33:07.426Z,17.83
2019-05-23T22:35:37.883Z,17.13
2019-05-23T22:38:08.873Z,20.00
2019-05-23T22:40:57.167Z,18.13
2019-05-23T22:43:45.660Z,15.83
2019-05-23T22:46:34.053Z,17.40
2019-05-23T22:49:04.668Z,14.67
2019-05-23T22:51:52.753Z,17.03
2019-05-23T22:54:41.021Z,16.40
2019-05-23T22:57:11.643Z,14.73
2019-05-23T23:00:00.114Z,17.37
2019-05-23T23:02:30.792Z,16.00
2019-05-23T23:05:01.300Z,16.07
2019-05-23T23:07:32.012Z,17.27
2019-05-23T23:10:02.572Z,19.93
2019-05-23T23:12:34.300Z,19.03
2019-05-23T23:15:05.122Z,14.20
2019-05-23T23:17:35.600Z,18.17
2019-05-23T23:20:07.090Z,16.03
2019-05-23T23:22:37.708Z,16.90
2019-05-23T23:25:08.341Z,14.13
2019-05-23T23:27:38.998Z,17.97
2019-05-23T23:30:11.394Z,23.00
2019-05-23T23:32:43.257Z,15.33
2019-05-23T23:35:13.846Z,15.73
2019-05-23T23:37:44.734Z,16.77
2019-05-23T23:40:15.548Z,16.90
2019-05-23T23:43:03.430Z,16.23
2019-05-23T23:45:52.001Z,18.67
2019-05-23T23:48:40.188Z,19.40
2019-05-23T23:51:28.700Z,17.57
2019-05-23T23:54:16.824Z,18.57
2019-05-23T23:57:05.140Z,18.00
2019-05-23T23:59:34.602Z,19.53
